Terminal Aerodrome Forecast
Issued by NWS

Current Version | Previous Version | Text Only | Print | Product List | Glossary On
Versions: 1 2 3 4 5 6 7 8 9 10 11 12 13 14 15 16 17 18 19 20 21 22 23 24 25 26 27 28 29
000
FTUS41 KBUF 180218 AAA
TAFJHW
TAF AMD
KJHW 180218Z 1802/1824 22011KT 3SM RA BR SCT004 OVC008
     FM180500 20008KT 5SM BR VCSH BKN012
     FM181200 23008KT P6SM BKN035
     FM181600 23011G17KT P6SM VCSH BKN050
     FM182100 27009KT P6SM BKN035
      AMD LTD TO CLD VIS AND WIND=

USA.gov is the U.S. government's official web portal to all federal, state and local government web resources and services.